Kezdőlap
METAR-TAF:

METAR-TAF

Repülőterek :

Payerne, Svájc

földrajzi szélesség: 46-49N, földrajzi hosszúság: 006-57E, magasság: 490 m

Jelenlegi meteorológiai megfigyelések

A jelentés 13 perccel ezelõtt készült, 15:20 UTC
Nyugat-délnyugati szél 8 kt
Hőmérséklet 13°C
Páratartalom 62%
Légköri nyomás 1010 hPa
Látótávolság 10 km, vagy több
Szakadozott felhőzet 8400 lábon

METAR: LSMP 151520Z AUTO 25008KT 9999NDV BKN084 13/06 Q1010 RMK

Idő: 16:33 (15:33 UTC)


TAF: hiányzik

Meteorológiai megfigyelések és előrejelzések több, mint 4000 repülőtéren (METAR és TAF jelentéseket).

A térképen piros és sárga pontok jelzik az elérhető meteorológiai állomásokat.

Mozgassa az egeret a pont fölött, hogy megjelenjen az állomás neve.

Azután kattintson az időjárási megfigyelések és előrejelzések megtekintéséhez.

A térkép megváltoztatása: kattintson a fekete keresztel jelölt zöld gombra ráközelítéshez, a vonallal jelölt zöld gombra távolításhoz, vagy a zöld nyilakra a szomszédos térképek eléréséhez.


METAR-TAF: